sensor_id;sensor_type;location;lat;lon;timestamp;P1;durP1;ratioP1;P2;durP2;ratioP2
5345;SDS011;2695;49.444;11.054;2023-07-24T00:00:37;9.23;;;5.97;;
5345;SDS011;2695;49.444;11.054;2023-07-24T00:03:06;7.80;;;6.00;;
5345;SDS011;2695;49.444;11.054;2023-07-24T00:05:34;11.20;;;6.40;;
5345;SDS011;2695;49.444;11.054;2023-07-24T00:08:04;12.30;;;6.67;;
5345;SDS011;2695;49.444;11.054;2023-07-24T00:10:33;8.67;;;5.17;;
5345;SDS011;2695;49.444;11.054;2023-07-24T00:13:01;8.37;;;5.33;;
5345;SDS011;2695;49.444;11.054;2023-07-24T00:15:29;9.73;;;5.60;;
5345;SDS011;2695;49.444;11.054;2023-07-24T00:17:57;9.10;;;5.10;;
5345;SDS011;2695;49.444;11.054;2023-07-24T00:20:25;9.90;;;5.80;;
5345;SDS011;2695;49.444;11.054;2023-07-24T00:22:53;8.23;;;4.97;;
5345;SDS011;2695;49.444;11.054;2023-07-24T00:25:23;13.90;;;6.43;;
5345;SDS011;2695;49.444;11.054;2023-07-24T00:27:50;7.60;;;5.13;;
5345;SDS011;2695;49.444;11.054;2023-07-24T00:30:18;9.87;;;5.40;;
5345;SDS011;2695;49.444;11.054;2023-07-24T00:32:46;10.17;;;5.90;;
5345;SDS011;2695;49.444;11.054;2023-07-24T00:35:14;9.13;;;5.37;;
5345;SDS011;2695;49.444;11.054;2023-07-24T00:37:42;9.00;;;5.20;;
5345;SDS011;2695;49.444;11.054;2023-07-24T00:40:11;9.90;;;5.10;;
5345;SDS011;2695;49.444;11.054;2023-07-24T00:42:40;8.43;;;4.87;;
5345;SDS011;2695;49.444;11.054;2023-07-24T00:45:13;10.80;;;5.67;;
5345;SDS011;2695;49.444;11.054;2023-07-24T00:47:41;9.37;;;5.50;;
5345;SDS011;2695;49.444;11.054;2023-07-24T00:50:10;10.40;;;6.27;;
5345;SDS011;2695;49.444;11.054;2023-07-24T00:52:39;10.30;;;5.50;;
5345;SDS011;2695;49.444;11.054;2023-07-24T00:55:08;8.67;;;4.90;;
5345;SDS011;2695;49.444;11.054;2023-07-24T00:57:37;10.67;;;6.67;;
5345;SDS011;2695;49.444;11.054;2023-07-24T01:00:07;13.80;;;6.40;;
5345;SDS011;2695;49.444;11.054;2023-07-24T01:02:36;12.97;;;6.30;;
5345;SDS011;2695;49.444;11.054;2023-07-24T01:05:05;12.20;;;6.27;;
5345;SDS011;2695;49.444;11.054;2023-07-24T01:07:35;9.60;;;6.10;;
5345;SDS011;2695;49.444;11.054;2023-07-24T01:10:03;10.33;;;6.33;;
5345;SDS011;2695;49.444;11.054;2023-07-24T01:12:34;10.20;;;6.07;;
5345;SDS011;2695;49.444;11.054;2023-07-24T01:15:08;10.80;;;6.03;;
5345;SDS011;2695;49.444;11.054;2023-07-24T01:17:45;10.73;;;7.07;;
5345;SDS011;2695;49.444;11.054;2023-07-24T01:20:17;11.50;;;7.20;;
5345;SDS011;2695;49.444;11.054;2023-07-24T01:22:48;9.90;;;5.63;;
5345;SDS011;2695;49.444;11.054;2023-07-24T01:25:31;13.43;;;6.20;;
5345;SDS011;2695;49.444;11.054;2023-07-24T01:28:07;13.73;;;7.17;;
5345;SDS011;2695;49.444;11.054;2023-07-24T01:30:35;14.73;;;7.97;;
5345;SDS011;2695;49.444;11.054;2023-07-24T01:33:03;11.37;;;6.93;;
5345;SDS011;2695;49.444;11.054;2023-07-24T01:35:31;25.07;;;7.57;;
5345;SDS011;2695;49.444;11.054;2023-07-24T01:38:00;12.27;;;7.30;;
5345;SDS011;2695;49.444;11.054;2023-07-24T01:40:29;12.20;;;6.80;;
5345;SDS011;2695;49.444;11.054;2023-07-24T01:42:57;9.30;;;6.10;;
5345;SDS011;2695;49.444;11.054;2023-07-24T01:45:27;10.57;;;6.33;;
5345;SDS011;2695;49.444;11.054;2023-07-24T01:47:55;13.20;;;6.93;;
5345;SDS011;2695;49.444;11.054;2023-07-24T01:50:23;15.83;;;8.13;;
5345;SDS011;2695;49.444;11.054;2023-07-24T01:52:51;12.27;;;7.20;;
5345;SDS011;2695;49.444;11.054;2023-07-24T01:55:19;18.60;;;7.20;;
5345;SDS011;2695;49.444;11.054;2023-07-24T01:57:47;14.00;;;7.90;;
5345;SDS011;2695;49.444;11.054;2023-07-24T02:00:15;10.30;;;6.97;;
5345;SDS011;2695;49.444;11.054;2023-07-24T02:02:44;16.27;;;6.80;;
5345;SDS011;2695;49.444;11.054;2023-07-24T02:05:12;12.50;;;6.67;;
5345;SDS011;2695;49.444;11.054;2023-07-24T02:07:40;10.90;;;6.73;;
5345;SDS011;2695;49.444;11.054;2023-07-24T02:10:08;9.10;;;5.90;;
5345;SDS011;2695;49.444;11.054;2023-07-24T02:12:37;10.67;;;6.20;;
5345;SDS011;2695;49.444;11.054;2023-07-24T02:15:05;12.93;;;7.00;;
5345;SDS011;2695;49.444;11.054;2023-07-24T02:17:34;8.93;;;6.13;;
5345;SDS011;2695;49.444;11.054;2023-07-24T02:20:04;11.40;;;6.67;;
5345;SDS011;2695;49.444;11.054;2023-07-24T02:22:32;11.03;;;6.53;;
5345;SDS011;2695;49.444;11.054;2023-07-24T02:25:00;11.37;;;6.90;;
5345;SDS011;2695;49.444;11.054;2023-07-24T02:27:28;13.97;;;7.20;;
5345;SDS011;2695;49.444;11.054;2023-07-24T02:29:57;12.47;;;7.53;;
5345;SDS011;2695;49.444;11.054;2023-07-24T02:32:25;11.83;;;6.83;;
5345;SDS011;2695;49.444;11.054;2023-07-24T02:34:53;9.90;;;6.30;;
5345;SDS011;2695;49.444;11.054;2023-07-24T02:37:23;14.33;;;7.70;;
5345;SDS011;2695;49.444;11.054;2023-07-24T02:39:51;12.40;;;6.67;;
5345;SDS011;2695;49.444;11.054;2023-07-24T02:42:19;9.80;;;6.10;;
5345;SDS011;2695;49.444;11.054;2023-07-24T02:44:47;11.20;;;6.80;;
5345;SDS011;2695;49.444;11.054;2023-07-24T02:47:15;11.57;;;7.00;;
5345;SDS011;2695;49.444;11.054;2023-07-24T02:49:43;10.47;;;6.67;;
5345;SDS011;2695;49.444;11.054;2023-07-24T02:52:11;13.23;;;8.13;;
5345;SDS011;2695;49.444;11.054;2023-07-24T02:54:40;13.60;;;6.57;;
5345;SDS011;2695;49.444;11.054;2023-07-24T02:57:08;12.23;;;7.20;;
5345;SDS011;2695;49.444;11.054;2023-07-24T02:59:36;10.73;;;6.57;;
5345;SDS011;2695;49.444;11.054;2023-07-24T03:02:04;13.73;;;7.40;;
5345;SDS011;2695;49.444;11.054;2023-07-24T03:04:32;11.20;;;7.10;;
5345;SDS011;2695;49.444;11.054;2023-07-24T03:07:00;9.73;;;6.93;;
5345;SDS011;2695;49.444;11.054;2023-07-24T03:09:28;12.00;;;7.40;;
5345;SDS011;2695;49.444;11.054;2023-07-24T03:11:58;12.60;;;7.57;;
5345;SDS011;2695;49.444;11.054;2023-07-24T03:14:26;9.53;;;6.33;;
5345;SDS011;2695;49.444;11.054;2023-07-24T03:16:53;11.77;;;7.10;;
5345;SDS011;2695;49.444;11.054;2023-07-24T03:19:21;12.73;;;6.77;;
5345;SDS011;2695;49.444;11.054;2023-07-24T03:21:50;16.80;;;8.10;;
5345;SDS011;2695;49.444;11.054;2023-07-24T03:24:17;12.67;;;6.97;;
5345;SDS011;2695;49.444;11.054;2023-07-24T03:26:48;14.40;;;7.27;;
5345;SDS011;2695;49.444;11.054;2023-07-24T03:29:18;11.50;;;7.33;;
5345;SDS011;2695;49.444;11.054;2023-07-24T03:31:46;13.27;;;8.17;;
5345;SDS011;2695;49.444;11.054;2023-07-24T03:34:14;15.43;;;7.90;;
5345;SDS011;2695;49.444;11.054;2023-07-24T03:36:42;12.20;;;7.40;;
5345;SDS011;2695;49.444;11.054;2023-07-24T03:39:10;17.53;;;7.97;;
5345;SDS011;2695;49.444;11.054;2023-07-24T03:41:38;13.33;;;7.10;;
5345;SDS011;2695;49.444;11.054;2023-07-24T03:44:07;12.93;;;7.63;;
5345;SDS011;2695;49.444;11.054;2023-07-24T03:46:36;14.93;;;7.47;;
5345;SDS011;2695;49.444;11.054;2023-07-24T03:49:04;16.07;;;8.47;;
5345;SDS011;2695;49.444;11.054;2023-07-24T03:51:32;13.70;;;9.10;;
5345;SDS011;2695;49.444;11.054;2023-07-24T03:54:00;15.00;;;8.47;;
5345;SDS011;2695;49.444;11.054;2023-07-24T03:56:28;14.13;;;7.10;;
5345;SDS011;2695;49.444;11.054;2023-07-24T03:58:57;12.20;;;7.60;;
5345;SDS011;2695;49.444;11.054;2023-07-24T04:01:25;12.63;;;7.50;;
5345;SDS011;2695;49.444;11.054;2023-07-24T04:03:54;10.10;;;6.37;;
5345;SDS011;2695;49.444;11.054;2023-07-24T04:06:22;10.10;;;6.90;;
5345;SDS011;2695;49.444;11.054;2023-07-24T04:08:50;8.73;;;5.80;;
5345;SDS011;2695;49.444;11.054;2023-07-24T04:11:18;13.67;;;8.03;;
5345;SDS011;2695;49.444;11.054;2023-07-24T04:13:46;15.40;;;7.93;;
5345;SDS011;2695;49.444;11.054;2023-07-24T04:16:14;12.83;;;7.90;;
5345;SDS011;2695;49.444;11.054;2023-07-24T04:18:43;14.40;;;8.03;;
5345;SDS011;2695;49.444;11.054;2023-07-24T04:21:12;14.77;;;7.60;;
5345;SDS011;2695;49.444;11.054;2023-07-24T04:23:40;15.13;;;8.50;;
5345;SDS011;2695;49.444;11.054;2023-07-24T04:26:08;12.57;;;7.90;;
5345;SDS011;2695;49.444;11.054;2023-07-24T04:28:36;12.23;;;7.63;;
5345;SDS011;2695;49.444;11.054;2023-07-24T04:31:04;11.73;;;7.33;;
5345;SDS011;2695;49.444;11.054;2023-07-24T04:33:32;13.23;;;8.53;;
5345;SDS011;2695;49.444;11.054;2023-07-24T04:36:00;12.37;;;7.40;;
5345;SDS011;2695;49.444;11.054;2023-07-24T04:38:30;12.40;;;7.50;;
5345;SDS011;2695;49.444;11.054;2023-07-24T04:40:59;12.43;;;7.83;;
5345;SDS011;2695;49.444;11.054;2023-07-24T04:43:28;14.17;;;7.50;;
5345;SDS011;2695;49.444;11.054;2023-07-24T04:45:56;13.17;;;7.50;;
5345;SDS011;2695;49.444;11.054;2023-07-24T04:48:24;13.00;;;7.90;;
5345;SDS011;2695;49.444;11.054;2023-07-24T04:50:53;13.20;;;8.80;;
5345;SDS011;2695;49.444;11.054;2023-07-24T04:53:22;13.50;;;8.13;;
5345;SDS011;2695;49.444;11.054;2023-07-24T04:55:59;11.90;;;7.53;;
5345;SDS011;2695;49.444;11.054;2023-07-24T04:58:27;13.55;;;7.65;;
5345;SDS011;2695;49.444;11.054;2023-07-24T05:00:55;12.40;;;7.20;;
5345;SDS011;2695;49.444;11.054;2023-07-24T05:03:24;12.25;;;7.97;;
5345;SDS011;2695;49.444;11.054;2023-07-24T05:05:53;13.27;;;7.30;;
5345;SDS011;2695;49.444;11.054;2023-07-24T05:08:22;11.77;;;8.13;;
5345;SDS011;2695;49.444;11.054;2023-07-24T05:10:54;12.50;;;7.80;;
5345;SDS011;2695;49.444;11.054;2023-07-24T05:13:24;12.23;;;8.30;;
5345;SDS011;2695;49.444;11.054;2023-07-24T05:15:52;15.13;;;8.48;;
5345;SDS011;2695;49.444;11.054;2023-07-24T05:18:20;11.70;;;6.97;;
5345;SDS011;2695;49.444;11.054;2023-07-24T05:20:49;13.43;;;8.82;;
5345;SDS011;2695;49.444;11.054;2023-07-24T05:23:18;11.77;;;6.72;;
5345;SDS011;2695;49.444;11.054;2023-07-24T05:25:46;12.70;;;7.50;;
5345;SDS011;2695;49.444;11.054;2023-07-24T05:28:14;13.07;;;7.43;;
5345;SDS011;2695;49.444;11.054;2023-07-24T05:30:44;12.07;;;7.47;;
5345;SDS011;2695;49.444;11.054;2023-07-24T05:33:12;12.50;;;7.70;;
5345;SDS011;2695;49.444;11.054;2023-07-24T05:35:40;12.30;;;8.32;;
5345;SDS011;2695;49.444;11.054;2023-07-24T05:38:09;12.93;;;6.72;;
5345;SDS011;2695;49.444;11.054;2023-07-24T05:40:37;12.88;;;7.47;;
5345;SDS011;2695;49.444;11.054;2023-07-24T05:43:05;10.05;;;6.88;;
5345;SDS011;2695;49.444;11.054;2023-07-24T05:45:34;10.05;;;6.55;;
5345;SDS011;2695;49.444;11.054;2023-07-24T05:48:03;10.27;;;7.53;;
5345;SDS011;2695;49.444;11.054;2023-07-24T05:50:37;10.02;;;7.43;;
5345;SDS011;2695;49.444;11.054;2023-07-24T05:53:05;12.57;;;8.15;;
5345;SDS011;2695;49.444;11.054;2023-07-24T05:55:33;9.63;;;6.60;;
5345;SDS011;2695;49.444;11.054;2023-07-24T05:58:01;13.18;;;7.30;;
5345;SDS011;2695;49.444;11.054;2023-07-24T06:00:29;12.48;;;7.13;;
5345;SDS011;2695;49.444;11.054;2023-07-24T06:02:57;12.73;;;7.35;;
5345;SDS011;2695;49.444;11.054;2023-07-24T06:05:27;11.98;;;7.32;;
5345;SDS011;2695;49.444;11.054;2023-07-24T06:07:54;13.32;;;7.85;;
5345;SDS011;2695;49.444;11.054;2023-07-24T06:10:23;11.75;;;7.72;;
5345;SDS011;2695;49.444;11.054;2023-07-24T06:12:51;11.40;;;7.43;;
5345;SDS011;2695;49.444;11.054;2023-07-24T06:15:19;10.20;;;7.13;;
5345;SDS011;2695;49.444;11.054;2023-07-24T06:17:47;10.50;;;7.30;;
5345;SDS011;2695;49.444;11.054;2023-07-24T06:20:20;12.15;;;8.38;;
5345;SDS011;2695;49.444;11.054;2023-07-24T06:22:49;10.30;;;6.97;;
5345;SDS011;2695;49.444;11.054;2023-07-24T06:25:17;10.80;;;5.72;;
5345;SDS011;2695;49.444;11.054;2023-07-24T06:27:45;16.63;;;8.63;;
5345;SDS011;2695;49.444;11.054;2023-07-24T06:30:13;12.00;;;7.45;;
5345;SDS011;2695;49.444;11.054;2023-07-24T06:32:42;12.95;;;8.23;;
5345;SDS011;2695;49.444;11.054;2023-07-24T06:35:10;15.70;;;7.40;;
5345;SDS011;2695;49.444;11.054;2023-07-24T06:37:38;15.00;;;8.25;;
5345;SDS011;2695;49.444;11.054;2023-07-24T06:40:08;16.00;;;7.43;;
5345;SDS011;2695;49.444;11.054;2023-07-24T06:42:37;9.68;;;7.20;;
5345;SDS011;2695;49.444;11.054;2023-07-24T06:45:06;11.32;;;7.53;;
5345;SDS011;2695;49.444;11.054;2023-07-24T06:47:35;11.50;;;6.90;;
5345;SDS011;2695;49.444;11.054;2023-07-24T06:50:03;10.15;;;7.05;;
5345;SDS011;2695;49.444;11.054;2023-07-24T06:52:35;14.25;;;8.05;;
5345;SDS011;2695;49.444;11.054;2023-07-24T06:55:03;20.25;;;7.47;;
5345;SDS011;2695;49.444;11.054;2023-07-24T06:57:33;15.88;;;8.02;;
5345;SDS011;2695;49.444;11.054;2023-07-24T07:00:01;16.02;;;7.57;;
5345;SDS011;2695;49.444;11.054;2023-07-24T07:02:29;14.02;;;7.22;;
5345;SDS011;2695;49.444;11.054;2023-07-24T07:04:57;12.30;;;6.97;;
5345;SDS011;2695;49.444;11.054;2023-07-24T07:07:25;11.95;;;7.22;;
5345;SDS011;2695;49.444;11.054;2023-07-24T07:09:55;11.30;;;7.40;;
5345;SDS011;2695;49.444;11.054;2023-07-24T07:12:23;10.68;;;7.15;;
5345;SDS011;2695;49.444;11.054;2023-07-24T07:14:52;9.55;;;7.05;;
5345;SDS011;2695;49.444;11.054;2023-07-24T07:17:20;12.80;;;7.70;;
5345;SDS011;2695;49.444;11.054;2023-07-24T07:19:48;13.15;;;6.70;;
5345;SDS011;2695;49.444;11.054;2023-07-24T07:22:16;11.00;;;7.78;;
5345;SDS011;2695;49.444;11.054;2023-07-24T07:24:44;10.98;;;7.38;;
5345;SDS011;2695;49.444;11.054;2023-07-24T07:27:13;10.40;;;6.60;;
5345;SDS011;2695;49.444;11.054;2023-07-24T07:29:43;11.77;;;5.50;;
5345;SDS011;2695;49.444;11.054;2023-07-24T07:32:12;10.40;;;6.40;;
5345;SDS011;2695;49.444;11.054;2023-07-24T07:34:40;11.35;;;6.60;;
5345;SDS011;2695;49.444;11.054;2023-07-24T07:37:08;16.65;;;8.77;;
5345;SDS011;2695;49.444;11.054;2023-07-24T07:39:36;11.50;;;7.55;;
5345;SDS011;2695;49.444;11.054;2023-07-24T07:42:04;13.35;;;7.47;;
5345;SDS011;2695;49.444;11.054;2023-07-24T07:44:43;17.17;;;8.20;;
5345;SDS011;2695;49.444;11.054;2023-07-24T07:47:12;13.10;;;7.68;;
5345;SDS011;2695;49.444;11.054;2023-07-24T07:49:41;15.45;;;7.97;;
5345;SDS011;2695;49.444;11.054;2023-07-24T07:52:09;12.75;;;7.53;;
5345;SDS011;2695;49.444;11.054;2023-07-24T07:54:37;11.23;;;7.63;;
5345;SDS011;2695;49.444;11.054;2023-07-24T07:57:05;12.27;;;7.20;;
5345;SDS011;2695;49.444;11.054;2023-07-24T07:59:35;12.10;;;7.78;;
5345;SDS011;2695;49.444;11.054;2023-07-24T08:02:04;13.75;;;7.53;;
5345;SDS011;2695;49.444;11.054;2023-07-24T08:04:35;13.77;;;7.47;;
5345;SDS011;2695;49.444;11.054;2023-07-24T08:07:03;10.88;;;6.68;;
5345;SDS011;2695;49.444;11.054;2023-07-24T08:09:32;11.38;;;7.10;;
5345;SDS011;2695;49.444;11.054;2023-07-24T08:12:00;14.32;;;8.00;;
5345;SDS011;2695;49.444;11.054;2023-07-24T08:14:28;17.27;;;8.93;;
5345;SDS011;2695;49.444;11.054;2023-07-24T08:16:57;13.65;;;7.63;;
5345;SDS011;2695;49.444;11.054;2023-07-24T08:19:27;13.80;;;8.18;;
5345;SDS011;2695;49.444;11.054;2023-07-24T08:21:57;16.88;;;7.75;;
5345;SDS011;2695;49.444;11.054;2023-07-24T08:24:28;13.43;;;7.75;;
5345;SDS011;2695;49.444;11.054;2023-07-24T08:26:57;17.90;;;7.82;;
5345;SDS011;2695;49.444;11.054;2023-07-24T08:29:27;14.07;;;8.98;;
5345;SDS011;2695;49.444;11.054;2023-07-24T08:31:59;14.38;;;7.97;;
5345;SDS011;2695;49.444;11.054;2023-07-24T08:34:28;16.42;;;7.65;;
5345;SDS011;2695;49.444;11.054;2023-07-24T08:36:58;13.60;;;6.90;;
5345;SDS011;2695;49.444;11.054;2023-07-24T08:39:26;13.43;;;7.00;;
5345;SDS011;2695;49.444;11.054;2023-07-24T08:41:54;13.52;;;6.07;;
5345;SDS011;2695;49.444;11.054;2023-07-24T08:44:24;10.25;;;7.57;;
5345;SDS011;2695;49.444;11.054;2023-07-24T08:46:57;12.45;;;7.50;;
5345;SDS011;2695;49.444;11.054;2023-07-24T08:49:26;12.43;;;8.07;;
5345;SDS011;2695;49.444;11.054;2023-07-24T08:52:00;11.07;;;8.10;;
5345;SDS011;2695;49.444;11.054;2023-07-24T08:54:30;11.20;;;7.95;;
5345;SDS011;2695;49.444;11.054;2023-07-24T08:57:00;12.65;;;7.45;;
5345;SDS011;2695;49.444;11.054;2023-07-24T08:59:29;12.70;;;7.40;;
5345;SDS011;2695;49.444;11.054;2023-07-24T09:01:57;13.02;;;6.85;;
5345;SDS011;2695;49.444;11.054;2023-07-24T09:04:25;14.82;;;7.43;;
5345;SDS011;2695;49.444;11.054;2023-07-24T09:06:53;15.95;;;8.73;;
5345;SDS011;2695;49.444;11.054;2023-07-24T09:09:28;11.65;;;7.18;;
5345;SDS011;2695;49.444;11.054;2023-07-24T09:11:57;13.98;;;7.68;;
5345;SDS011;2695;49.444;11.054;2023-07-24T09:14:26;16.15;;;7.43;;
5345;SDS011;2695;49.444;11.054;2023-07-24T09:17:01;17.17;;;7.85;;
5345;SDS011;2695;49.444;11.054;2023-07-24T09:19:30;10.95;;;6.97;;
5345;SDS011;2695;49.444;11.054;2023-07-24T09:22:08;11.40;;;7.43;;
5345;SDS011;2695;49.444;11.054;2023-07-24T09:24:38;12.77;;;7.28;;
5345;SDS011;2695;49.444;11.054;2023-07-24T09:27:17;11.90;;;7.35;;
5345;SDS011;2695;49.444;11.054;2023-07-24T09:29:45;11.98;;;7.20;;
5345;SDS011;2695;49.444;11.054;2023-07-24T09:32:20;11.63;;;7.70;;
5345;SDS011;2695;49.444;11.054;2023-07-24T09:34:49;14.10;;;7.95;;
5345;SDS011;2695;49.444;11.054;2023-07-24T09:37:25;15.60;;;8.73;;
5345;SDS011;2695;49.444;11.054;2023-07-24T09:39:55;17.15;;;8.32;;
5345;SDS011;2695;49.444;11.054;2023-07-24T09:42:29;12.20;;;7.70;;
5345;SDS011;2695;49.444;11.054;2023-07-24T09:44:57;13.95;;;8.02;;
5345;SDS011;2695;49.444;11.054;2023-07-24T09:47:26;13.35;;;8.15;;
5345;SDS011;2695;49.444;11.054;2023-07-24T09:50:13;12.10;;;7.43;;
5345;SDS011;2695;49.444;11.054;2023-07-24T09:52:42;13.35;;;7.57;;
5345;SDS011;2695;49.444;11.054;2023-07-24T09:55:14;11.70;;;8.07;;
5345;SDS011;2695;49.444;11.054;2023-07-24T09:57:47;13.23;;;8.10;;
5345;SDS011;2695;49.444;11.054;2023-07-24T10:00:19;12.27;;;7.22;;
5345;SDS011;2695;49.444;11.054;2023-07-24T10:02:48;12.82;;;7.93;;
5345;SDS011;2695;49.444;11.054;2023-07-24T10:05:16;11.32;;;8.02;;
5345;SDS011;2695;49.444;11.054;2023-07-24T10:07:45;18.42;;;7.85;;
5345;SDS011;2695;49.444;11.054;2023-07-24T10:10:15;11.27;;;7.50;;
5345;SDS011;2695;49.444;11.054;2023-07-24T10:12:44;15.18;;;8.38;;
5345;SDS011;2695;49.444;11.054;2023-07-24T10:15:15;15.38;;;8.57;;
5345;SDS011;2695;49.444;11.054;2023-07-24T10:18:00;13.15;;;8.60;;
5345;SDS011;2695;49.444;11.054;2023-07-24T10:20:33;11.68;;;7.30;;
5345;SDS011;2695;49.444;11.054;2023-07-24T10:23:02;12.18;;;7.78;;
5345;SDS011;2695;49.444;11.054;2023-07-24T10:25:32;14.70;;;6.90;;
5345;SDS011;2695;49.444;11.054;2023-07-24T10:28:02;11.27;;;7.82;;
5345;SDS011;2695;49.444;11.054;2023-07-24T10:30:33;14.10;;;8.07;;
5345;SDS011;2695;49.444;11.054;2023-07-24T10:33:04;15.50;;;7.97;;
5345;SDS011;2695;49.444;11.054;2023-07-24T10:35:37;13.60;;;7.72;;
5345;SDS011;2695;49.444;11.054;2023-07-24T10:38:06;14.32;;;7.15;;
5345;SDS011;2695;49.444;11.054;2023-07-24T10:40:36;12.27;;;7.85;;
5345;SDS011;2695;49.444;11.054;2023-07-24T10:43:04;13.85;;;7.70;;
5345;SDS011;2695;49.444;11.054;2023-07-24T10:45:39;19.90;;;9.32;;
5345;SDS011;2695;49.444;11.054;2023-07-24T10:48:08;14.55;;;7.97;;
5345;SDS011;2695;49.444;11.054;2023-07-24T10:50:38;14.30;;;7.82;;
5345;SDS011;2695;49.444;11.054;2023-07-24T10:53:07;14.50;;;8.15;;
5345;SDS011;2695;49.444;11.054;2023-07-24T10:55:37;13.30;;;7.82;;
5345;SDS011;2695;49.444;11.054;2023-07-24T10:58:06;15.90;;;7.75;;
5345;SDS011;2695;49.444;11.054;2023-07-24T11:00:35;15.43;;;9.35;;
5345;SDS011;2695;49.444;11.054;2023-07-24T11:03:03;13.38;;;8.43;;
5345;SDS011;2695;49.444;11.054;2023-07-24T11:05:33;13.82;;;8.95;;
5345;SDS011;2695;49.444;11.054;2023-07-24T11:08:07;14.07;;;8.07;;
5345;SDS011;2695;49.444;11.054;2023-07-24T11:10:45;21.00;;;10.18;;
5345;SDS011;2695;49.444;11.054;2023-07-24T11:13:14;17.25;;;8.73;;
5345;SDS011;2695;49.444;11.054;2023-07-24T11:15:43;14.75;;;8.95;;
5345;SDS011;2695;49.444;11.054;2023-07-24T11:18:14;14.20;;;8.60;;
5345;SDS011;2695;49.444;11.054;2023-07-24T11:20:43;15.55;;;8.52;;
5345;SDS011;2695;49.444;11.054;2023-07-24T11:23:13;14.65;;;8.00;;
5345;SDS011;2695;49.444;11.054;2023-07-24T11:25:42;15.80;;;8.23;;
5345;SDS011;2695;49.444;11.054;2023-07-24T11:28:15;17.30;;;8.05;;
5345;SDS011;2695;49.444;11.054;2023-07-24T11:30:43;13.70;;;8.10;;
5345;SDS011;2695;49.444;11.054;2023-07-24T11:33:12;20.40;;;10.00;;
5345;SDS011;2695;49.444;11.054;2023-07-24T11:35:45;15.65;;;7.93;;
5345;SDS011;2695;49.444;11.054;2023-07-24T11:38:16;17.50;;;8.80;;
5345;SDS011;2695;49.444;11.054;2023-07-24T11:40:45;14.82;;;8.73;;
5345;SDS011;2695;49.444;11.054;2023-07-24T11:43:18;15.25;;;8.50;;
5345;SDS011;2695;49.444;11.054;2023-07-24T11:45:48;12.90;;;7.93;;
5345;SDS011;2695;49.444;11.054;2023-07-24T11:48:19;16.63;;;9.10;;
5345;SDS011;2695;49.444;11.054;2023-07-24T11:50:50;13.80;;;7.90;;
5345;SDS011;2695;49.444;11.054;2023-07-24T11:53:21;17.75;;;8.15;;
5345;SDS011;2695;49.444;11.054;2023-07-24T11:55:50;16.35;;;8.68;;
5345;SDS011;2695;49.444;11.054;2023-07-24T11:58:36;16.85;;;9.48;;
5345;SDS011;2695;49.444;11.054;2023-07-24T12:01:07;12.50;;;7.53;;
5345;SDS011;2695;49.444;11.054;2023-07-24T12:03:38;13.23;;;6.82;;
5345;SDS011;2695;49.444;11.054;2023-07-24T12:09:03;7.75;;;5.32;;
5345;SDS011;2695;49.444;11.054;2023-07-24T12:11:48;10.27;;;5.15;;
5345;SDS011;2695;49.444;11.054;2023-07-24T12:14:20;9.23;;;5.70;;
5345;SDS011;2695;49.444;11.054;2023-07-24T12:17:00;7.13;;;4.75;;
5345;SDS011;2695;49.444;11.054;2023-07-24T12:19:38;9.23;;;5.07;;
5345;SDS011;2695;49.444;11.054;2023-07-24T12:22:08;6.75;;;5.30;;
5345;SDS011;2695;49.444;11.054;2023-07-24T12:24:36;7.30;;;4.40;;
5345;SDS011;2695;49.444;11.054;2023-07-24T12:27:07;6.23;;;4.20;;
5345;SDS011;2695;49.444;11.054;2023-07-24T12:32:27;6.80;;;4.75;;
5345;SDS011;2695;49.444;11.054;2023-07-24T12:34:59;6.28;;;4.63;;
5345;SDS011;2695;49.444;11.054;2023-07-24T12:37:30;8.25;;;4.20;;
5345;SDS011;2695;49.444;11.054;2023-07-24T12:40:06;6.28;;;4.32;;
5345;SDS011;2695;49.444;11.054;2023-07-24T12:42:37;6.93;;;4.82;;
5345;SDS011;2695;49.444;11.054;2023-07-24T12:45:07;9.75;;;4.50;;
5345;SDS011;2695;49.444;11.054;2023-07-24T12:47:36;5.97;;;4.10;;
5345;SDS011;2695;49.444;11.054;2023-07-24T12:50:04;8.17;;;4.60;;
5345;SDS011;2695;49.444;11.054;2023-07-24T12:52:33;6.90;;;4.60;;
5345;SDS011;2695;49.444;11.054;2023-07-24T12:55:03;6.27;;;4.67;;
5345;SDS011;2695;49.444;11.054;2023-07-24T12:57:31;8.27;;;5.10;;
5345;SDS011;2695;49.444;11.054;2023-07-24T12:59:59;7.03;;;4.90;;
5345;SDS011;2695;49.444;11.054;2023-07-24T13:02:29;12.27;;;5.67;;
5345;SDS011;2695;49.444;11.054;2023-07-24T13:04:58;9.50;;;5.23;;
5345;SDS011;2695;49.444;11.054;2023-07-24T13:07:26;7.87;;;4.73;;
5345;SDS011;2695;49.444;11.054;2023-07-24T13:09:56;8.57;;;5.40;;
5345;SDS011;2695;49.444;11.054;2023-07-24T13:12:48;8.63;;;6.40;;
5345;SDS011;2695;49.444;11.054;2023-07-24T13:15:33;17.53;;;6.50;;
5345;SDS011;2695;49.444;11.054;2023-07-24T13:18:21;9.10;;;5.80;;
5345;SDS011;2695;49.444;11.054;2023-07-24T13:20:57;10.47;;;6.77;;
5345;SDS011;2695;49.444;11.054;2023-07-24T13:23:28;8.60;;;5.87;;
5345;SDS011;2695;49.444;11.054;2023-07-24T13:25:57;12.10;;;6.47;;
5345;SDS011;2695;49.444;11.054;2023-07-24T13:28:25;9.05;;;5.72;;
5345;SDS011;2695;49.444;11.054;2023-07-24T13:30:53;9.07;;;6.32;;
5345;SDS011;2695;49.444;11.054;2023-07-24T13:33:27;6.05;;;5.03;;
5345;SDS011;2695;49.444;11.054;2023-07-24T13:35:55;6.63;;;4.50;;
5345;SDS011;2695;49.444;11.054;2023-07-24T13:38:23;7.47;;;5.38;;
5345;SDS011;2695;49.444;11.054;2023-07-24T13:40:51;7.85;;;5.53;;
5345;SDS011;2695;49.444;11.054;2023-07-24T13:43:18;7.65;;;5.00;;
5345;SDS011;2695;49.444;11.054;2023-07-24T13:45:46;7.80;;;4.97;;
5345;SDS011;2695;49.444;11.054;2023-07-24T13:48:15;8.00;;;4.82;;
5345;SDS011;2695;49.444;11.054;2023-07-24T13:50:44;8.73;;;5.38;;
5345;SDS011;2695;49.444;11.054;2023-07-24T13:59:21;6.95;;;5.18;;
5345;SDS011;2695;49.444;11.054;2023-07-24T14:01:52;6.78;;;4.82;;
5345;SDS011;2695;49.444;11.054;2023-07-24T14:04:24;10.52;;;6.05;;
5345;SDS011;2695;49.444;11.054;2023-07-24T14:06:55;9.13;;;5.10;;
5345;SDS011;2695;49.444;11.054;2023-07-24T14:09:25;10.00;;;4.75;;
5345;SDS011;2695;49.444;11.054;2023-07-24T14:12:02;9.50;;;5.63;;
5345;SDS011;2695;49.444;11.054;2023-07-24T14:14:40;5.17;;;3.93;;
5345;SDS011;2695;49.444;11.054;2023-07-24T14:17:16;6.60;;;4.70;;
5345;SDS011;2695;49.444;11.054;2023-07-24T14:19:49;7.50;;;5.47;;
5345;SDS011;2695;49.444;11.054;2023-07-24T14:22:26;6.17;;;4.43;;
5345;SDS011;2695;49.444;11.054;2023-07-24T14:24:54;6.47;;;4.50;;
5345;SDS011;2695;49.444;11.054;2023-07-24T14:27:23;6.30;;;4.43;;
5345;SDS011;2695;49.444;11.054;2023-07-24T14:29:54;8.60;;;4.63;;
5345;SDS011;2695;49.444;11.054;2023-07-24T14:32:25;6.90;;;4.60;;
5345;SDS011;2695;49.444;11.054;2023-07-24T14:34:58;8.43;;;4.90;;
5345;SDS011;2695;49.444;11.054;2023-07-24T14:37:28;10.20;;;4.70;;
5345;SDS011;2695;49.444;11.054;2023-07-24T14:39:57;11.00;;;4.40;;
5345;SDS011;2695;49.444;11.054;2023-07-24T14:42:31;8.03;;;5.60;;
5345;SDS011;2695;49.444;11.054;2023-07-24T14:55:47;7.07;;;4.10;;
5345;SDS011;2695;49.444;11.054;2023-07-24T14:59:46;8.13;;;4.60;;
5345;SDS011;2695;49.444;11.054;2023-07-24T15:02:51;8.18;;;4.25;;
5345;SDS011;2695;49.444;11.054;2023-07-24T15:05:25;5.28;;;3.40;;
5345;SDS011;2695;49.444;11.054;2023-07-24T15:08:14;7.32;;;4.45;;
5345;SDS011;2695;49.444;11.054;2023-07-24T15:15:00;7.85;;;4.25;;
5345;SDS011;2695;49.444;11.054;2023-07-24T15:18:05;5.00;;;3.87;;
5345;SDS011;2695;49.444;11.054;2023-07-24T15:21:40;6.63;;;4.17;;
5345;SDS011;2695;49.444;11.054;2023-07-24T15:29:04;7.07;;;3.80;;
5345;SDS011;2695;49.444;11.054;2023-07-24T15:31:32;6.75;;;4.07;;
5345;SDS011;2695;49.444;11.054;2023-07-24T15:34:03;4.83;;;3.73;;
5345;SDS011;2695;49.444;11.054;2023-07-24T15:36:37;7.37;;;4.37;;
5345;SDS011;2695;49.444;11.054;2023-07-24T15:39:05;5.68;;;3.28;;
5345;SDS011;2695;49.444;11.054;2023-07-24T15:41:33;6.63;;;4.03;;